sensor_id;sensor_type;location;lat;lon;timestamp;P1;durP1;ratioP1;P2;durP2;ratioP2
12896;SDS011;6516;35.028;32.372;2023-03-01T00:01:13;25.90;;;12.05;;
12896;SDS011;6516;35.028;32.372;2023-03-01T00:03:43;21.23;;;11.88;;
12896;SDS011;6516;35.028;32.372;2023-03-01T00:06:10;24.52;;;12.35;;
12896;SDS011;6516;35.028;32.372;2023-03-01T00:08:38;24.83;;;12.20;;
12896;SDS011;6516;35.028;32.372;2023-03-01T00:11:09;25.20;;;13.07;;
12896;SDS011;6516;35.028;32.372;2023-03-01T00:13:42;22.40;;;12.32;;
12896;SDS011;6516;35.028;32.372;2023-03-01T00:16:12;20.88;;;11.68;;
12896;SDS011;6516;35.028;32.372;2023-03-01T00:18:41;24.40;;;13.15;;
12896;SDS011;6516;35.028;32.372;2023-03-01T00:21:09;25.95;;;12.95;;
12896;SDS011;6516;35.028;32.372;2023-03-01T00:23:38;24.83;;;12.03;;
12896;SDS011;6516;35.028;32.372;2023-03-01T00:26:08;21.83;;;12.15;;
12896;SDS011;6516;35.028;32.372;2023-03-01T00:28:39;24.27;;;12.82;;
12896;SDS011;6516;35.028;32.372;2023-03-01T00:31:08;32.40;;;13.40;;
12896;SDS011;6516;35.028;32.372;2023-03-01T00:33:38;25.52;;;13.07;;
12896;SDS011;6516;35.028;32.372;2023-03-01T00:36:06;22.07;;;13.40;;
12896;SDS011;6516;35.028;32.372;2023-03-01T00:38:36;24.60;;;13.20;;
12896;SDS011;6516;35.028;32.372;2023-03-01T00:41:05;25.10;;;12.75;;
12896;SDS011;6516;35.028;32.372;2023-03-01T00:43:35;28.40;;;14.68;;
12896;SDS011;6516;35.028;32.372;2023-03-01T00:46:04;23.08;;;13.02;;
12896;SDS011;6516;35.028;32.372;2023-03-01T00:48:33;25.50;;;13.40;;
12896;SDS011;6516;35.028;32.372;2023-03-01T00:51:05;25.55;;;13.27;;
12896;SDS011;6516;35.028;32.372;2023-03-01T00:53:34;22.67;;;12.48;;
12896;SDS011;6516;35.028;32.372;2023-03-01T00:56:03;25.63;;;12.23;;
12896;SDS011;6516;35.028;32.372;2023-03-01T00:58:34;24.42;;;12.98;;
12896;SDS011;6516;35.028;32.372;2023-03-01T01:01:06;24.43;;;13.87;;
12896;SDS011;6516;35.028;32.372;2023-03-01T01:03:43;24.45;;;12.63;;
12896;SDS011;6516;35.028;32.372;2023-03-01T01:06:13;24.77;;;12.77;;
12896;SDS011;6516;35.028;32.372;2023-03-01T01:08:42;20.40;;;12.52;;
12896;SDS011;6516;35.028;32.372;2023-03-01T01:11:10;28.63;;;12.95;;
12896;SDS011;6516;35.028;32.372;2023-03-01T01:13:40;23.20;;;12.00;;
12896;SDS011;6516;35.028;32.372;2023-03-01T01:16:08;22.25;;;12.98;;
12896;SDS011;6516;35.028;32.372;2023-03-01T01:18:36;21.90;;;12.55;;
12896;SDS011;6516;35.028;32.372;2023-03-01T01:21:05;20.80;;;12.50;;
12896;SDS011;6516;35.028;32.372;2023-03-01T01:23:35;23.27;;;12.60;;
12896;SDS011;6516;35.028;32.372;2023-03-01T01:26:05;22.50;;;12.20;;
12896;SDS011;6516;35.028;32.372;2023-03-01T01:28:34;23.23;;;12.80;;
12896;SDS011;6516;35.028;32.372;2023-03-01T01:31:03;24.45;;;12.98;;
12896;SDS011;6516;35.028;32.372;2023-03-01T01:33:31;24.88;;;12.82;;
12896;SDS011;6516;35.028;32.372;2023-03-01T01:36:00;23.83;;;12.57;;
12896;SDS011;6516;35.028;32.372;2023-03-01T01:38:28;23.97;;;12.63;;
12896;SDS011;6516;35.028;32.372;2023-03-01T01:40:55;23.83;;;12.82;;
12896;SDS011;6516;35.028;32.372;2023-03-01T01:43:24;29.83;;;12.90;;
12896;SDS011;6516;35.028;32.372;2023-03-01T01:45:55;23.50;;;12.40;;
12896;SDS011;6516;35.028;32.372;2023-03-01T01:48:28;25.40;;;12.75;;
12896;SDS011;6516;35.028;32.372;2023-03-01T01:51:06;23.17;;;12.50;;
12896;SDS011;6516;35.028;32.372;2023-03-01T01:53:38;20.70;;;12.20;;
12896;SDS011;6516;35.028;32.372;2023-03-01T01:56:07;23.52;;;12.15;;
12896;SDS011;6516;35.028;32.372;2023-03-01T01:58:38;26.27;;;12.20;;
12896;SDS011;6516;35.028;32.372;2023-03-01T02:01:08;26.02;;;11.73;;
12896;SDS011;6516;35.028;32.372;2023-03-01T02:03:38;24.63;;;11.77;;
12896;SDS011;6516;35.028;32.372;2023-03-01T02:06:12;25.10;;;12.27;;
12896;SDS011;6516;35.028;32.372;2023-03-01T02:08:47;23.95;;;12.32;;
12896;SDS011;6516;35.028;32.372;2023-03-01T02:11:16;22.13;;;11.45;;
12896;SDS011;6516;35.028;32.372;2023-03-01T02:13:45;23.23;;;11.48;;
12896;SDS011;6516;35.028;32.372;2023-03-01T02:16:15;27.83;;;12.23;;
12896;SDS011;6516;35.028;32.372;2023-03-01T02:18:46;21.48;;;12.15;;
12896;SDS011;6516;35.028;32.372;2023-03-01T02:21:17;24.58;;;12.25;;
12896;SDS011;6516;35.028;32.372;2023-03-01T02:23:58;24.80;;;12.20;;
12896;SDS011;6516;35.028;32.372;2023-03-01T02:26:37;22.25;;;11.88;;
12896;SDS011;6516;35.028;32.372;2023-03-01T02:29:13;29.90;;;12.93;;
12896;SDS011;6516;35.028;32.372;2023-03-01T02:31:41;26.23;;;11.95;;
12896;SDS011;6516;35.028;32.372;2023-03-01T02:34:08;25.02;;;12.73;;
12896;SDS011;6516;35.028;32.372;2023-03-01T02:36:39;22.10;;;11.95;;
12896;SDS011;6516;35.028;32.372;2023-03-01T02:39:14;24.95;;;12.95;;
12896;SDS011;6516;35.028;32.372;2023-03-01T02:41:46;25.73;;;13.20;;
12896;SDS011;6516;35.028;32.372;2023-03-01T02:44:21;24.92;;;13.07;;
12896;SDS011;6516;35.028;32.372;2023-03-01T02:46:50;19.67;;;12.00;;
12896;SDS011;6516;35.028;32.372;2023-03-01T02:49:22;22.60;;;12.98;;
12896;SDS011;6516;35.028;32.372;2023-03-01T02:55:02;22.87;;;12.73;;
12896;SDS011;6516;35.028;32.372;2023-03-01T02:57:36;21.50;;;12.65;;
12896;SDS011;6516;35.028;32.372;2023-03-01T03:00:12;20.70;;;12.07;;
12896;SDS011;6516;35.028;32.372;2023-03-01T03:02:46;26.20;;;13.18;;
12896;SDS011;6516;35.028;32.372;2023-03-01T03:05:16;22.95;;;13.13;;
12896;SDS011;6516;35.028;32.372;2023-03-01T03:07:47;23.30;;;13.33;;
12896;SDS011;6516;35.028;32.372;2023-03-01T03:10:17;27.33;;;12.90;;
12896;SDS011;6516;35.028;32.372;2023-03-01T03:12:48;23.33;;;12.20;;
12896;SDS011;6516;35.028;32.372;2023-03-01T03:15:19;23.60;;;12.65;;
12896;SDS011;6516;35.028;32.372;2023-03-01T03:17:48;20.10;;;11.75;;
12896;SDS011;6516;35.028;32.372;2023-03-01T03:20:18;23.10;;;12.97;;
12896;SDS011;6516;35.028;32.372;2023-03-01T03:22:49;22.00;;;12.88;;
12896;SDS011;6516;35.028;32.372;2023-03-01T03:25:19;26.45;;;12.75;;
12896;SDS011;6516;35.028;32.372;2023-03-01T03:27:49;21.73;;;11.45;;
12896;SDS011;6516;35.028;32.372;2023-03-01T03:30:23;25.00;;;11.27;;
12896;SDS011;6516;35.028;32.372;2023-03-01T03:32:53;26.17;;;12.27;;
12896;SDS011;6516;35.028;32.372;2023-03-01T03:35:22;21.52;;;11.50;;
12896;SDS011;6516;35.028;32.372;2023-03-01T03:37:52;19.60;;;11.38;;
12896;SDS011;6516;35.028;32.372;2023-03-01T03:40:31;20.33;;;11.45;;
12896;SDS011;6516;35.028;32.372;2023-03-01T03:43:01;22.90;;;10.88;;
12896;SDS011;6516;35.028;32.372;2023-03-01T03:45:31;21.53;;;11.10;;
12896;SDS011;6516;35.028;32.372;2023-03-01T03:48:00;24.25;;;11.70;;
12896;SDS011;6516;35.028;32.372;2023-03-01T03:50:29;24.85;;;11.85;;
12896;SDS011;6516;35.028;32.372;2023-03-01T03:52:57;26.20;;;12.48;;
12896;SDS011;6516;35.028;32.372;2023-03-01T03:55:27;20.02;;;11.82;;
12896;SDS011;6516;35.028;32.372;2023-03-01T03:57:56;23.13;;;12.70;;
12896;SDS011;6516;35.028;32.372;2023-03-01T04:00:27;25.10;;;12.20;;
12896;SDS011;6516;35.028;32.372;2023-03-01T04:02:57;25.60;;;12.38;;
12896;SDS011;6516;35.028;32.372;2023-03-01T04:05:26;22.30;;;11.73;;
12896;SDS011;6516;35.028;32.372;2023-03-01T04:07:55;23.95;;;11.02;;
12896;SDS011;6516;35.028;32.372;2023-03-01T04:10:33;20.33;;;11.00;;
12896;SDS011;6516;35.028;32.372;2023-03-01T04:13:04;24.17;;;11.43;;
12896;SDS011;6516;35.028;32.372;2023-03-01T04:15:33;24.90;;;11.68;;
12896;SDS011;6516;35.028;32.372;2023-03-01T04:18:03;25.98;;;11.77;;
12896;SDS011;6516;35.028;32.372;2023-03-01T04:20:32;20.48;;;10.60;;
12896;SDS011;6516;35.028;32.372;2023-03-01T04:23:02;19.23;;;11.27;;
12896;SDS011;6516;35.028;32.372;2023-03-01T04:25:38;23.77;;;11.35;;
12896;SDS011;6516;35.028;32.372;2023-03-01T04:28:07;31.98;;;11.57;;
12896;SDS011;6516;35.028;32.372;2023-03-01T04:30:35;23.42;;;11.93;;
12896;SDS011;6516;35.028;32.372;2023-03-01T04:33:05;21.63;;;11.20;;
12896;SDS011;6516;35.028;32.372;2023-03-01T04:35:35;21.07;;;11.33;;
12896;SDS011;6516;35.028;32.372;2023-03-01T04:38:04;18.98;;;11.30;;
12896;SDS011;6516;35.028;32.372;2023-03-01T04:40:32;23.65;;;12.25;;
12896;SDS011;6516;35.028;32.372;2023-03-01T04:43:01;20.45;;;11.57;;
12896;SDS011;6516;35.028;32.372;2023-03-01T04:45:30;26.50;;;12.82;;
12896;SDS011;6516;35.028;32.372;2023-03-01T04:48:00;27.20;;;12.37;;
12896;SDS011;6516;35.028;32.372;2023-03-01T04:50:30;20.77;;;11.90;;
12896;SDS011;6516;35.028;32.372;2023-03-01T04:52:58;21.60;;;11.32;;
12896;SDS011;6516;35.028;32.372;2023-03-01T04:55:26;18.27;;;11.40;;
12896;SDS011;6516;35.028;32.372;2023-03-01T04:57:55;26.13;;;12.40;;
12896;SDS011;6516;35.028;32.372;2023-03-01T05:00:23;30.17;;;12.20;;
12896;SDS011;6516;35.028;32.372;2023-03-01T05:02:52;23.30;;;11.35;;
12896;SDS011;6516;35.028;32.372;2023-03-01T05:05:26;22.08;;;11.80;;
12896;SDS011;6516;35.028;32.372;2023-03-01T05:07:58;23.08;;;11.73;;
12896;SDS011;6516;35.028;32.372;2023-03-01T05:10:28;21.60;;;12.00;;
12896;SDS011;6516;35.028;32.372;2023-03-01T05:12:58;21.37;;;11.73;;
12896;SDS011;6516;35.028;32.372;2023-03-01T05:15:27;22.40;;;11.80;;
12896;SDS011;6516;35.028;32.372;2023-03-01T05:17:57;23.92;;;12.10;;
12896;SDS011;6516;35.028;32.372;2023-03-01T05:20:26;22.40;;;11.65;;
12896;SDS011;6516;35.028;32.372;2023-03-01T05:22:55;21.92;;;12.00;;
12896;SDS011;6516;35.028;32.372;2023-03-01T05:25:30;22.83;;;11.33;;
12896;SDS011;6516;35.028;32.372;2023-03-01T05:27:59;22.73;;;11.85;;
12896;SDS011;6516;35.028;32.372;2023-03-01T05:30:29;23.80;;;12.57;;
12896;SDS011;6516;35.028;32.372;2023-03-01T05:32:58;23.77;;;12.95;;
12896;SDS011;6516;35.028;32.372;2023-03-01T05:35:26;26.15;;;12.73;;
12896;SDS011;6516;35.028;32.372;2023-03-01T05:37:54;28.93;;;12.10;;
12896;SDS011;6516;35.028;32.372;2023-03-01T05:40:23;22.13;;;11.70;;
12896;SDS011;6516;35.028;32.372;2023-03-01T05:42:52;20.48;;;12.27;;
12896;SDS011;6516;35.028;32.372;2023-03-01T05:45:23;24.60;;;13.00;;
12896;SDS011;6516;35.028;32.372;2023-03-01T05:47:52;20.45;;;11.57;;
12896;SDS011;6516;35.028;32.372;2023-03-01T05:50:23;18.97;;;12.40;;
12896;SDS011;6516;35.028;32.372;2023-03-01T05:52:56;24.73;;;12.95;;
12896;SDS011;6516;35.028;32.372;2023-03-01T05:55:28;21.85;;;11.55;;
12896;SDS011;6516;35.028;32.372;2023-03-01T05:57:58;17.83;;;11.68;;
12896;SDS011;6516;35.028;32.372;2023-03-01T06:00:26;20.13;;;11.48;;
12896;SDS011;6516;35.028;32.372;2023-03-01T06:02:55;19.93;;;11.67;;
12896;SDS011;6516;35.028;32.372;2023-03-01T06:05:24;22.33;;;11.82;;
12896;SDS011;6516;35.028;32.372;2023-03-01T06:07:54;20.45;;;11.27;;
12896;SDS011;6516;35.028;32.372;2023-03-01T06:10:23;24.13;;;11.90;;
12896;SDS011;6516;35.028;32.372;2023-03-01T06:12:52;19.92;;;12.45;;
12896;SDS011;6516;35.028;32.372;2023-03-01T06:15:21;21.10;;;12.33;;
12896;SDS011;6516;35.028;32.372;2023-03-01T06:17:50;21.10;;;12.30;;
12896;SDS011;6516;35.028;32.372;2023-03-01T06:20:20;28.25;;;12.15;;
12896;SDS011;6516;35.028;32.372;2023-03-01T06:22:50;21.60;;;11.73;;
12896;SDS011;6516;35.028;32.372;2023-03-01T06:25:19;16.95;;;11.35;;
12896;SDS011;6516;35.028;32.372;2023-03-01T06:27:49;19.77;;;10.70;;
12896;SDS011;6516;35.028;32.372;2023-03-01T06:30:20;19.17;;;11.13;;
12896;SDS011;6516;35.028;32.372;2023-03-01T06:32:50;15.05;;;10.57;;
12896;SDS011;6516;35.028;32.372;2023-03-01T06:35:18;18.00;;;11.75;;
12896;SDS011;6516;35.028;32.372;2023-03-01T06:37:47;17.25;;;10.98;;
12896;SDS011;6516;35.028;32.372;2023-03-01T06:40:15;18.80;;;11.07;;
12896;SDS011;6516;35.028;32.372;2023-03-01T06:42:46;16.30;;;11.07;;
12896;SDS011;6516;35.028;32.372;2023-03-01T06:45:16;21.08;;;11.15;;
12896;SDS011;6516;35.028;32.372;2023-03-01T06:47:46;16.30;;;10.57;;
12896;SDS011;6516;35.028;32.372;2023-03-01T06:50:15;17.63;;;11.23;;
12896;SDS011;6516;35.028;32.372;2023-03-01T06:52:44;17.60;;;11.70;;
12896;SDS011;6516;35.028;32.372;2023-03-01T06:55:13;21.52;;;11.48;;
12896;SDS011;6516;35.028;32.372;2023-03-01T06:57:42;19.20;;;12.35;;
12896;SDS011;6516;35.028;32.372;2023-03-01T07:00:10;20.45;;;12.32;;
12896;SDS011;6516;35.028;32.372;2023-03-01T07:02:40;22.00;;;12.60;;
12896;SDS011;6516;35.028;32.372;2023-03-01T07:05:09;22.07;;;13.00;;
12896;SDS011;6516;35.028;32.372;2023-03-01T07:07:37;22.27;;;12.13;;
12896;SDS011;6516;35.028;32.372;2023-03-01T07:10:05;22.48;;;12.32;;
12896;SDS011;6516;35.028;32.372;2023-03-01T07:12:35;19.17;;;12.73;;
12896;SDS011;6516;35.028;32.372;2023-03-01T07:15:03;22.70;;;12.30;;
12896;SDS011;6516;35.028;32.372;2023-03-01T07:17:34;20.03;;;13.20;;
12896;SDS011;6516;35.028;32.372;2023-03-01T07:20:02;20.13;;;12.95;;
12896;SDS011;6516;35.028;32.372;2023-03-01T07:25:01;18.45;;;12.65;;
12896;SDS011;6516;35.028;32.372;2023-03-01T07:27:29;19.90;;;12.20;;
12896;SDS011;6516;35.028;32.372;2023-03-01T07:29:57;21.70;;;12.97;;
12896;SDS011;6516;35.028;32.372;2023-03-01T07:32:24;21.58;;;13.25;;
12896;SDS011;6516;35.028;32.372;2023-03-01T07:34:52;22.05;;;12.82;;
12896;SDS011;6516;35.028;32.372;2023-03-01T07:37:20;21.75;;;12.30;;
12896;SDS011;6516;35.028;32.372;2023-03-01T07:39:49;21.40;;;12.65;;
12896;SDS011;6516;35.028;32.372;2023-03-01T07:42:17;20.47;;;13.00;;
12896;SDS011;6516;35.028;32.372;2023-03-01T07:44:44;22.70;;;12.85;;
12896;SDS011;6516;35.028;32.372;2023-03-01T07:47:12;23.95;;;12.85;;
12896;SDS011;6516;35.028;32.372;2023-03-01T07:49:40;24.52;;;13.32;;
12896;SDS011;6516;35.028;32.372;2023-03-01T07:52:09;24.27;;;12.95;;
12896;SDS011;6516;35.028;32.372;2023-03-01T07:54:37;25.20;;;13.40;;
12896;SDS011;6516;35.028;32.372;2023-03-01T07:57:07;23.08;;;13.52;;
12896;SDS011;6516;35.028;32.372;2023-03-01T07:59:34;19.98;;;12.68;;
12896;SDS011;6516;35.028;32.372;2023-03-01T08:02:02;24.80;;;13.45;;
12896;SDS011;6516;35.028;32.372;2023-03-01T08:04:30;23.42;;;13.70;;
12896;SDS011;6516;35.028;32.372;2023-03-01T08:06:58;23.73;;;13.47;;
12896;SDS011;6516;35.028;32.372;2023-03-01T08:09:26;21.42;;;13.20;;
12896;SDS011;6516;35.028;32.372;2023-03-01T08:11:55;24.55;;;13.07;;
12896;SDS011;6516;35.028;32.372;2023-03-01T08:14:26;21.52;;;12.82;;
12896;SDS011;6516;35.028;32.372;2023-03-01T08:16:54;24.33;;;12.80;;
12896;SDS011;6516;35.028;32.372;2023-03-01T08:19:21;23.00;;;12.60;;
12896;SDS011;6516;35.028;32.372;2023-03-01T08:21:49;23.58;;;13.23;;
12896;SDS011;6516;35.028;32.372;2023-03-01T08:24:17;19.73;;;13.10;;
12896;SDS011;6516;35.028;32.372;2023-03-01T08:26:45;26.90;;;13.60;;
12896;SDS011;6516;35.028;32.372;2023-03-01T08:29:13;23.52;;;13.57;;
12896;SDS011;6516;35.028;32.372;2023-03-01T08:31:42;22.30;;;14.00;;
12896;SDS011;6516;35.028;32.372;2023-03-01T08:34:11;25.00;;;14.70;;
12896;SDS011;6516;35.028;32.372;2023-03-01T08:36:40;26.15;;;14.52;;
12896;SDS011;6516;35.028;32.372;2023-03-01T08:39:11;26.10;;;14.43;;
12896;SDS011;6516;35.028;32.372;2023-03-01T08:41:41;26.40;;;14.13;;
12896;SDS011;6516;35.028;32.372;2023-03-01T08:44:09;24.23;;;13.80;;
12896;SDS011;6516;35.028;32.372;2023-03-01T08:46:40;23.83;;;13.80;;
12896;SDS011;6516;35.028;32.372;2023-03-01T08:49:11;24.42;;;14.32;;
12896;SDS011;6516;35.028;32.372;2023-03-01T08:51:41;24.48;;;14.15;;
12896;SDS011;6516;35.028;32.372;2023-03-01T08:54:09;19.40;;;13.60;;
12896;SDS011;6516;35.028;32.372;2023-03-01T08:56:40;22.63;;;13.07;;
12896;SDS011;6516;35.028;32.372;2023-03-01T08:59:08;27.10;;;13.27;;
12896;SDS011;6516;35.028;32.372;2023-03-01T09:01:37;23.35;;;12.35;;
12896;SDS011;6516;35.028;32.372;2023-03-01T09:04:06;23.48;;;12.52;;
12896;SDS011;6516;35.028;32.372;2023-03-01T09:06:34;22.50;;;12.65;;
12896;SDS011;6516;35.028;32.372;2023-03-01T09:09:02;22.20;;;12.23;;
12896;SDS011;6516;35.028;32.372;2023-03-01T09:11:34;22.33;;;12.60;;
12896;SDS011;6516;35.028;32.372;2023-03-01T09:14:04;20.80;;;12.23;;
12896;SDS011;6516;35.028;32.372;2023-03-01T09:16:33;23.58;;;12.23;;
12896;SDS011;6516;35.028;32.372;2023-03-01T09:19:01;26.02;;;12.32;;
12896;SDS011;6516;35.028;32.372;2023-03-01T09:21:31;23.23;;;12.37;;
12896;SDS011;6516;35.028;32.372;2023-03-01T09:23:59;18.90;;;12.25;;
12896;SDS011;6516;35.028;32.372;2023-03-01T09:26:27;21.23;;;12.57;;
12896;SDS011;6516;35.028;32.372;2023-03-01T09:28:55;18.77;;;11.55;;
12896;SDS011;6516;35.028;32.372;2023-03-01T09:31:23;20.80;;;12.18;;
12896;SDS011;6516;35.028;32.372;2023-03-01T09:33:52;17.40;;;11.83;;
12896;SDS011;6516;35.028;32.372;2023-03-01T09:36:21;17.83;;;12.45;;
12896;SDS011;6516;35.028;32.372;2023-03-01T09:38:52;20.67;;;12.25;;
12896;SDS011;6516;35.028;32.372;2023-03-01T09:41:33;21.73;;;13.30;;
12896;SDS011;6516;35.028;32.372;2023-03-01T09:44:13;21.75;;;12.32;;
12896;SDS011;6516;35.028;32.372;2023-03-01T09:46:52;21.07;;;12.10;;
12896;SDS011;6516;35.028;32.372;2023-03-01T09:49:23;19.08;;;12.63;;
12896;SDS011;6516;35.028;32.372;2023-03-01T09:51:57;17.60;;;11.73;;
12896;SDS011;6516;35.028;32.372;2023-03-01T09:54:31;20.73;;;12.35;;
12896;SDS011;6516;35.028;32.372;2023-03-01T09:57:06;17.13;;;11.88;;
12896;SDS011;6516;35.028;32.372;2023-03-01T10:00:09;16.63;;;11.73;;
12896;SDS011;6516;35.028;32.372;2023-03-01T10:02:57;25.52;;;13.13;;
12896;SDS011;6516;35.028;32.372;2023-03-01T10:05:36;20.30;;;12.15;;
12896;SDS011;6516;35.028;32.372;2023-03-01T10:08:19;18.63;;;12.18;;
12896;SDS011;6516;35.028;32.372;2023-03-01T10:11:12;19.08;;;11.73;;
12896;SDS011;6516;35.028;32.372;2023-03-01T10:13:50;21.83;;;12.37;;
12896;SDS011;6516;35.028;32.372;2023-03-01T10:16:27;23.63;;;13.00;;
12896;SDS011;6516;35.028;32.372;2023-03-01T10:19:05;22.52;;;12.57;;
12896;SDS011;6516;35.028;32.372;2023-03-01T10:21:42;20.50;;;12.68;;
12896;SDS011;6516;35.028;32.372;2023-03-01T10:24:13;23.83;;;12.80;;
12896;SDS011;6516;35.028;32.372;2023-03-01T10:26:54;22.23;;;13.50;;
12896;SDS011;6516;35.028;32.372;2023-03-01T10:29:25;32.13;;;13.73;;
12896;SDS011;6516;35.028;32.372;2023-03-01T10:32:01;29.08;;;13.93;;
12896;SDS011;6516;35.028;32.372;2023-03-01T10:34:33;24.92;;;13.02;;
12896;SDS011;6516;35.028;32.372;2023-03-01T10:37:08;24.70;;;13.15;;
12896;SDS011;6516;35.028;32.372;2023-03-01T10:39:54;21.63;;;13.53;;
12896;SDS011;6516;35.028;32.372;2023-03-01T10:42:27;18.45;;;13.50;;
12896;SDS011;6516;35.028;32.372;2023-03-01T10:44:58;23.05;;;13.75;;
12896;SDS011;6516;35.028;32.372;2023-03-01T10:47:42;25.02;;;13.35;;
12896;SDS011;6516;35.028;32.372;2023-03-01T10:50:18;23.90;;;14.77;;
12896;SDS011;6516;35.028;32.372;2023-03-01T10:52:55;25.33;;;14.17;;
12896;SDS011;6516;35.028;32.372;2023-03-01T10:55:29;20.80;;;14.20;;
12896;SDS011;6516;35.028;32.372;2023-03-01T10:58:16;22.90;;;14.55;;
12896;SDS011;6516;35.028;32.372;2023-03-01T11:00:47;24.30;;;14.52;;
12896;SDS011;6516;35.028;32.372;2023-03-01T11:03:18;23.38;;;15.00;;
12896;SDS011;6516;35.028;32.372;2023-03-01T11:08:47;27.42;;;16.05;;
12896;SDS011;6516;35.028;32.372;2023-03-01T11:11:21;23.38;;;16.25;;
12896;SDS011;6516;35.028;32.372;2023-03-01T11:13:55;23.90;;;15.35;;
12896;SDS011;6516;35.028;32.372;2023-03-01T11:16:27;28.60;;;16.02;;
12896;SDS011;6516;35.028;32.372;2023-03-01T11:19:04;22.20;;;15.20;;
12896;SDS011;6516;35.028;32.372;2023-03-01T11:21:57;24.73;;;15.52;;
12896;SDS011;6516;35.028;32.372;2023-03-01T11:24:34;25.77;;;14.88;;
12896;SDS011;6516;35.028;32.372;2023-03-01T11:27:08;22.27;;;14.93;;
12896;SDS011;6516;35.028;32.372;2023-03-01T11:29:48;24.58;;;14.55;;
12896;SDS011;6516;35.028;32.372;2023-03-01T11:32:23;26.13;;;15.23;;
12896;SDS011;6516;35.028;32.372;2023-03-01T11:34:56;23.77;;;15.10;;
12896;SDS011;6516;35.028;32.372;2023-03-01T11:37:32;21.15;;;14.23;;
12896;SDS011;6516;35.028;32.372;2023-03-01T11:40:11;25.05;;;15.32;;
12896;SDS011;6516;35.028;32.372;2023-03-01T11:42:54;21.25;;;13.88;;
12896;SDS011;6516;35.028;32.372;2023-03-01T11:45:38;22.53;;;14.40;;
12896;SDS011;6516;35.028;32.372;2023-03-01T11:48:27;20.80;;;14.23;;
12896;SDS011;6516;35.028;32.372;2023-03-01T11:51:12;22.73;;;14.82;;
12896;SDS011;6516;35.028;32.372;2023-03-01T11:53:57;20.67;;;13.65;;
12896;SDS011;6516;35.028;32.372;2023-03-01T11:56:41;20.50;;;14.07;;
12896;SDS011;6516;35.028;32.372;2023-03-01T11:59:18;22.80;;;14.47;;
12896;SDS011;6516;35.028;32.372;2023-03-01T12:09:15;27.48;;;13.82;;
12896;SDS011;6516;35.028;32.372;2023-03-01T12:18:13;22.20;;;13.20;;
12896;SDS011;6516;35.028;32.372;2023-03-01T12:21:05;21.92;;;13.60;;
12896;SDS011;6516;35.028;32.372;2023-03-01T12:23:51;23.25;;;13.48;;
12896;SDS011;6516;35.028;32.372;2023-03-01T12:26:39;23.20;;;13.15;;
12896;SDS011;6516;35.028;32.372;2023-03-01T12:29:21;20.17;;;13.37;;
12896;SDS011;6516;35.028;32.372;2023-03-01T12:32:01;25.75;;;13.65;;
12896;SDS011;6516;35.028;32.372;2023-03-01T12:35:06;19.40;;;13.60;;
12896;SDS011;6516;35.028;32.372;2023-03-01T12:37:54;23.17;;;14.00;;
12896;SDS011;6516;35.028;32.372;2023-03-01T12:40:42;22.45;;;13.55;;
12896;SDS011;6516;35.028;32.372;2023-03-01T12:43:41;18.93;;;13.40;;
12896;SDS011;6516;35.028;32.372;2023-03-01T12:46:28;21.30;;;13.65;;
12896;SDS011;6516;35.028;32.372;2023-03-01T12:49:19;18.58;;;13.38;;
12896;SDS011;6516;35.028;32.372;2023-03-01T12:51:53;22.80;;;13.50;;
12896;SDS011;6516;35.028;32.372;2023-03-01T12:54:27;26.08;;;14.00;;
12896;SDS011;6516;35.028;32.372;2023-03-01T12:56:59;21.60;;;13.07;;
12896;SDS011;6516;35.028;32.372;2023-03-01T12:59:38;25.23;;;13.52;;
12896;SDS011;6516;35.028;32.372;2023-03-01T13:02:14;19.88;;;13.55;;
12896;SDS011;6516;35.028;32.372;2023-03-01T13:04:59;19.35;;;12.73;;
12896;SDS011;6516;35.028;32.372;2023-03-01T13:07:49;18.55;;;12.93;;
12896;SDS011;6516;35.028;32.372;2023-03-01T13:10:29;20.40;;;12.83;;
12896;SDS011;6516;35.028;32.372;2023-03-01T13:13:13;21.58;;;13.90;;
12896;SDS011;6516;35.028;32.372;2023-03-01T13:15:46;21.05;;;13.40;;
12896;SDS011;6516;35.028;32.372;2023-03-01T13:18:29;21.23;;;13.43;;
12896;SDS011;6516;35.028;32.372;2023-03-01T13:21:00;19.08;;;12.90;;
12896;SDS011;6516;35.028;32.372;2023-03-01T13:23:32;20.93;;;13.80;;
12896;SDS011;6516;35.028;32.372;2023-03-01T13:26:10;24.45;;;14.32;;
12896;SDS011;6516;35.028;32.372;2023-03-01T13:28:49;25.13;;;13.93;;
12896;SDS011;6516;35.028;32.372;2023-03-01T13:34:40;23.08;;;13.30;;
12896;SDS011;6516;35.028;32.372;2023-03-01T13:37:29;22.40;;;13.07;;
12896;SDS011;6516;35.028;32.372;2023-03-01T13:40:03;24.25;;;13.38;;
12896;SDS011;6516;35.028;32.372;2023-03-01T13:46:07;21.33;;;13.23;;
12896;SDS011;6516;35.028;32.372;2023-03-01T13:48:39;23.40;;;13.15;;
12896;SDS011;6516;35.028;32.372;2023-03-01T13:51:08;23.10;;;13.60;;
12896;SDS011;6516;35.028;32.372;2023-03-01T13:53:39;22.00;;;12.85;;
12896;SDS011;6516;35.028;32.372;2023-03-01T13:56:10;22.83;;;12.65;;
12896;SDS011;6516;35.028;32.372;2023-03-01T13:58:46;17.58;;;12.93;;
12896;SDS011;6516;35.028;32.372;2023-03-01T14:01:24;19.92;;;12.75;;
12896;SDS011;6516;35.028;32.372;2023-03-01T14:03:55;18.83;;;12.60;;
12896;SDS011;6516;35.028;32.372;2023-03-01T14:06:24;19.63;;;12.50;;
12896;SDS011;6516;35.028;32.372;2023-03-01T14:09:00;20.48;;;12.68;;
12896;SDS011;6516;35.028;32.372;2023-03-01T14:11:42;19.30;;;12.48;;
12896;SDS011;6516;35.028;32.372;2023-03-01T14:14:48;23.73;;;12.95;;
12896;SDS011;6516;35.028;32.372;2023-03-01T14:17:43;19.43;;;11.80;;
12896;SDS011;6516;35.028;32.372;2023-03-01T14:20:19;21.83;;;12.38;;
12896;SDS011;6516;35.028;32.372;2023-03-01T14:22:50;18.20;;;12.13;;
12896;SDS011;6516;35.028;32.372;2023-03-01T14:25:22;24.42;;;14.23;;
12896;SDS011;6516;35.028;32.372;2023-03-01T14:27:58;34.30;;;17.88;;
12896;SDS011;6516;35.028;32.372;2023-03-01T14:30:32;33.33;;;16.67;;
12896;SDS011;6516;35.028;32.372;2023-03-01T14:33:06;33.35;;;18.60;;
12896;SDS011;6516;35.028;32.372;2023-03-01T14:35:57;28.17;;;15.68;;
12896;SDS011;6516;35.028;32.372;2023-03-01T14:38:31;29.02;;;16.88;;
12896;SDS011;6516;35.028;32.372;2023-03-01T14:41:02;24.70;;;14.77;;
12896;SDS011;6516;35.028;32.372;2023-03-01T14:43:33;28.80;;;16.70;;
12896;SDS011;6516;35.028;32.372;2023-03-01T14:46:02;28.23;;;14.38;;
12896;SDS011;6516;35.028;32.372;2023-03-01T14:48:32;25.77;;;14.63;;
12896;SDS011;6516;35.028;32.372;2023-03-01T14:51:00;22.92;;;13.65;;
12896;SDS011;6516;35.028;32.372;2023-03-01T14:53:28;23.55;;;13.25;;
12896;SDS011;6516;35.028;32.372;2023-03-01T14:55:59;22.70;;;13.00;;
12896;SDS011;6516;35.028;32.372;2023-03-01T14:58:31;20.83;;;12.95;;
12896;SDS011;6516;35.028;32.372;2023-03-01T15:01:00;20.67;;;12.88;;
12896;SDS011;6516;35.028;32.372;2023-03-01T15:03:32;24.67;;;12.50;;
12896;SDS011;6516;35.028;32.372;2023-03-01T15:06:03;25.08;;;12.52;;
12896;SDS011;6516;35.028;32.372;2023-03-01T15:08:33;20.07;;;12.80;;
12896;SDS011;6516;35.028;32.372;2023-03-01T15:11:03;25.23;;;12.23;;
12896;SDS011;6516;35.028;32.372;2023-03-01T15:13:42;17.95;;;11.55;;
12896;SDS011;6516;35.028;32.372;2023-03-01T15:16:11;26.63;;;12.90;;
12896;SDS011;6516;35.028;32.372;2023-03-01T15:18:45;23.88;;;12.43;;
12896;SDS011;6516;35.028;32.372;2023-03-01T15:21:15;22.13;;;11.97;;